Sparta, Canada
Current Conditions -  °F | °C
As of 12:00 PM on Saturday 25 Oct 2014 (Local Time) from CYXU Reporting Station
Haze Haze  
Wind Chill: 57°   Ceiling: 2400
Heat Index: 57°   Visibility: 6mi
Dew Point: 52°   Wind: 14mph
Humidity: 82%   Direction: 240°WSW
Pressure: 29.73"   Gusts: 21mph
Location:  42.7°N, 81.08°W
Report Text: CYXU 251600Z 24012G18KT 6SM BR OVC024 14/11 A2973 RMK SC8 SLP068 DENSITY ALT 1200FT
Loading
Personal Weather Stations






























Interactive Weather Map
Tropical Storm Tracking
New forecast layout! Learn more

10-Day Weather Forecast

Advertisements
Track Severe Weather on mobile